Time;durP1;ratioP1;P1;durP2;ratioP2;P2;SDS_P1;SDS_P2;PMS_P1;PMS_P2;Temp;Humidity;BMP_temperature;BMP_pressure;BME280_temperature;BME280_humidity;BME280_pressure;Samples;Min_cycle;Max_cycle;Signal;HPM_P1;HPM_P2
2022/10/28 00:04:52;;;;;;;98.20;61.50;;;;;;;9.17;87.20;99676.39;422107;1295;110063;-40
2022/10/28 00:14:55;;;;;;;94.00;61.80;;;;;;;9.14;87.35;99666.55;422000;1295;107558;-41
2022/10/28 00:24:59;;;;;;;96.90;60.20;;;;;;;9.14;87.46;99665.95;422250;1295;98052;-40
2022/10/28 00:35:02;;;;;;;95.50;56.90;;;;;;;9.09;87.68;99652.79;422383;1295;107375;-40
2022/10/28 00:45:08;;;;;;;85.50;55.90;;;;;;;9.08;87.90;99634.64;422038;1295;97583;-40
2022/10/28 00:55:14;;;;;;;90.50;56.60;;;;;;;9.09;88.07;99620.52;422346;1295;109551;-40
2022/10/28 01:05:16;;;;;;;84.40;53.10;;;;;;;9.08;88.06;99607.27;422325;1295;108663;-42
2022/10/28 01:15:26;;;;;;;82.60;50.30;;;;;;;9.15;88.65;99609.61;423254;1260;97906;-39
2022/10/28 01:25:45;;;;;;;83.70;51.70;;;;;;;9.29;89.03;99606.84;422223;1292;107292;-39
2022/10/28 01:45:55;;;;;;;83.50;49.80;;;;;;;9.46;89.47;99596.79;422410;1296;108673;-39
2022/10/28 01:56:03;;;;;;;87.00;49.60;;;;;;;9.50;89.74;99588.80;414536;1297;10284765;-39
2022/10/28 02:06:14;;;;;;;84.20;47.60;;;;;;;9.45;89.85;99583.42;422481;1296;110361;-40
2022/10/28 02:16:17;;;;;;;73.70;49.10;;;;;;;9.28;89.64;99573.09;422442;1296;107307;-40
2022/10/28 02:26:24;;;;;;;83.70;55.00;;;;;;;9.10;89.80;99565.92;422651;1296;97216;-40
2022/10/28 02:36:31;;;;;;;90.10;54.80;;;;;;;8.95;89.87;99552.42;422523;1302;107967;-40
2022/10/28 02:46:37;;;;;;;73.90;49.80;;;;;;;8.83;90.29;99540.33;422205;1296;97219;-40
2022/10/28 02:56:45;;;;;;;69.80;45.40;;;;;;;8.83;90.53;99528.84;421960;1298;110505;-40
2022/10/28 03:06:49;;;;;;;65.50;41.60;;;;;;;8.84;90.68;99521.25;422127;1298;107922;-39
2022/10/28 03:16:53;;;;;;;59.70;41.10;;;;;;;8.87;90.67;99523.98;422480;1296;97867;-39
2022/10/28 03:26:56;;;;;;;61.50;38.60;;;;;;;8.89;90.66;99530.84;422501;1296;109235;-39
2022/10/28 03:37:00;;;;;;;65.10;40.90;;;;;;;9.04;90.88;99532.38;422114;1296;97678;-43
2022/10/28 03:47:03;;;;;;;60.00;38.10;;;;;;;9.21;91.12;99522.68;422706;1295;109980;-39
2022/10/28 03:57:07;;;;;;;55.60;36.50;;;;;;;9.40;91.56;99510.55;422795;1286;108343;-39
2022/10/28 04:07:11;;;;;;;50.70;35.50;;;;;;;9.57;91.67;99499.73;422588;1296;97875;-39
2022/10/28 04:17:15;;;;;;;49.00;31.50;;;;;;;9.60;91.66;99514.39;422325;1289;107690;-41
2022/10/28 04:27:19;;;;;;;50.30;33.40;;;;;;;9.61;91.42;99522.06;422240;1296;96656;-41
2022/10/28 04:37:22;;;;;;;53.20;34.80;;;;;;;9.59;91.31;99507.81;422275;1296;110612;-40
2022/10/28 04:47:26;;;;;;;48.20;33.50;;;;;;;9.58;91.45;99482.14;422269;1295;107152;-41
2022/10/28 04:57:31;;;;;;;48.90;30.20;;;;;;;9.58;91.62;99479.02;422341;1295;97867;-40
2022/10/28 05:07:35;;;;;;;51.10;30.40;;;;;;;9.57;91.70;99477.95;422534;1292;107925;-40
2022/10/28 05:27:41;;;;;;;42.50;28.40;;;;;;;9.67;91.83;99475.48;422268;1295;109946;-40
2022/10/28 05:37:45;;;;;;;36.90;27.20;;;;;;;9.69;91.74;99483.96;421919;1292;107683;-39
2022/10/28 05:47:49;;;;;;;42.10;27.50;;;;;;;9.72;91.75;99491.54;422423;1296;97678;-39
2022/10/28 05:57:53;;;;;;;35.30;26.00;;;;;;;9.80;91.85;99485.36;422123;1295;107337;-41
2022/10/28 06:07:57;;;;;;;33.90;25.90;;;;;;;9.93;92.02;99481.45;422801;1288;97880;-40
2022/10/28 06:18:00;;;;;;;44.80;29.60;;;;;;;10.08;92.03;99484.65;422586;1289;111405;-40
2022/10/28 06:28:03;;;;;;;38.70;27.40;;;;;;;10.27;92.13;99489.11;422226;1289;108663;-41
2022/10/28 06:38:14;;;;;;;42.90;29.00;;;;;;;10.44;92.06;99481.92;421811;1296;98310;-41
2022/10/28 06:48:18;;;;;;;37.00;26.50;;;;;;;10.72;92.34;99490.25;421862;1296;107760;-45
2022/10/28 06:58:22;;;;;;;41.70;25.70;;;;;;;11.31;92.70;99491.59;421790;1294;97876;-40
2022/10/28 07:08:33;;;;;;;39.80;25.70;;;;;;;12.36;92.79;99497.20;421757;1294;109433;-40
2022/10/28 07:18:37;;;;;;;30.30;22.20;;;;;;;13.45;92.60;99489.27;421570;1298;108569;-42
2022/10/28 07:38:47;;;;;;;27.40;19.70;;;;;;;15.88;91.41;99504.02;421677;1296;107268;-40
2022/10/28 07:48:51;;;;;;;25.70;18.20;;;;;;;16.75;90.42;99503.60;421722;1288;97951;-41
2022/10/28 07:58:55;;;;;;;17.50;12.90;;;;;;;17.51;89.36;99503.80;421764;1288;110410;-40
2022/10/28 08:08:59;;;;;;;16.10;12.20;;;;;;;17.22;87.55;99494.00;421740;1281;97880;-41
2022/10/28 08:19:02;;;;;;;17.50;12.30;;;;;;;16.70;86.70;99485.46;421907;1288;96657;-40
2022/10/28 08:29:11;;;;;;;18.00;13.30;;;;;;;16.71;86.24;99478.20;421656;1296;110923;-40
2022/10/28 08:39:15;;;;;;;20.40;11.00;;;;;;;16.69;85.06;99480.96;421808;1288;108646;-40
2022/10/28 08:49:24;;;;;;;14.40;9.60;;;;;;;16.82;84.77;99479.15;421715;1281;97897;-41
2022/10/28 08:59:26;;;;;;;14.30;9.70;;;;;;;17.11;84.45;99483.80;422455;1282;107971;-40
2022/10/28 09:09:31;;;;;;;16.30;10.40;;;;;;;17.43;83.92;99475.71;422286;1289;97867;-41
2022/10/28 09:19:36;;;;;;;12.50;9.10;;;;;;;17.76;82.91;99481.27;422191;1288;97484;-39
2022/10/28 09:29:45;;;;;;;16.20;8.10;;;;;;;17.94;82.03;99483.17;421719;1296;107760;-40
2022/10/28 09:39:50;;;;;;;15.50;7.60;;;;;;;18.33;81.20;99478.01;421862;1288;97879;-39
2022/10/28 09:49:56;;;;;;;10.40;7.20;;;;;;;18.30;80.09;99475.16;421860;1296;110021;-39
2022/10/28 10:00:00;;;;;;;12.10;6.90;;;;;;;18.02;79.80;99485.31;421979;1290;108233;-40
2022/10/28 10:20:10;;;;;;;10.30;5.90;;;;;;;18.66;79.74;99459.71;421910;1288;110058;-39
2022/10/28 10:30:16;;;;;;;8.60;5.00;;;;;;;18.76;79.22;99452.70;422067;1288;107619;-39
2022/10/28 10:40:46;;;;;;;13.70;6.00;;;;;;;18.84;78.72;99451.32;421951;1296;97941;-40
2022/10/28 10:50:51;;;;;;;12.60;6.10;;;;;;;18.72;78.15;99444.58;421491;1296;109929;-40
2022/10/28 11:00:56;;;;;;;6.70;5.40;;;;;;;18.63;77.97;99457.27;421968;1297;108628;-41
2022/10/28 11:21:27;;;;;;;8.80;4.70;;;;;;;18.99;77.21;99454.53;422180;1298;109591;-40
2022/10/28 11:32:02;;;;;;;11.00;5.60;;;;;;;18.95;77.03;99446.10;422116;1289;107319;-40
2022/10/28 11:42:10;;;;;;;11.60;5.60;;;;;;;18.78;76.27;99447.71;421939;1298;97546;-41
2022/10/28 11:52:21;;;;;;;9.10;5.90;;;;;;;18.60;75.90;99449.39;421442;1296;97864;-42
2022/10/28 12:02:29;;;;;;;9.50;5.00;;;;;;;18.58;75.92;99432.02;421904;1296;107983;-40
2022/10/28 12:12:33;;;;;;;17.10;6.20;;;;;;;18.73;75.65;99423.31;422218;1288;98113;-41
2022/10/28 12:22:45;;;;;;;8.10;5.90;;;;;;;18.84;75.42;99420.98;422113;1295;109828;-40
2022/10/28 12:33:11;;;;;;;10.80;5.80;;;;;;;18.75;75.11;99417.64;421773;1288;108967;-41
2022/10/28 12:43:23;;;;;;;7.00;5.40;;;;;;;18.63;74.72;99409.39;421875;1288;96637;-40
2022/10/28 12:53:29;;;;;;;10.70;5.80;;;;;;;18.57;74.57;99400.89;421777;1294;109161;-40
2022/10/28 13:03:32;;;;;;;12.60;6.70;;;;;;;18.50;74.65;99402.22;421898;1296;107505;-40
2022/10/28 13:23:57;;;;;;;8.10;5.10;;;;;;;18.40;73.73;99376.57;421767;1296;108143;-40
2022/10/28 13:34:01;;;;;;;8.90;6.20;;;;;;;18.51;73.74;99376.29;421993;1282;118211;-41
2022/10/28 13:44:25;;;;;;;8.90;6.00;;;;;;;18.44;72.95;99367.86;421726;1291;110629;-42
2022/10/28 13:54:29;;;;;;;7.30;4.30;;;;;;;18.31;73.03;99371.71;421299;1296;555966;-41
2022/10/28 14:04:34;;;;;;;8.20;5.00;;;;;;;18.20;73.18;99370.92;422002;1295;99224;-40
2022/10/28 14:14:39;;;;;;;7.90;5.00;;;;;;;18.08;73.00;99366.80;421682;1298;106128;-41
2022/10/28 14:25:02;;;;;;;8.00;4.80;;;;;;;17.99;73.24;99367.08;421576;1288;98896;-41
2022/10/28 14:35:17;;;;;;;9.60;4.90;;;;;;;17.86;73.27;99364.55;421422;1288;112033;-42
2022/10/28 14:45:40;;;;;;;7.30;5.10;;;;;;;17.62;73.26;99352.30;421707;1297;112190;-41
2022/10/28 14:55:46;;;;;;;9.20;6.40;;;;;;;17.35;73.44;99361.66;421927;1296;98018;-42
2022/10/28 15:05:50;;;;;;;15.30;5.10;;;;;;;17.02;73.62;99359.89;421942;1296;108846;-42
2022/10/28 15:16:18;;;;;;;11.60;6.70;;;;;;;16.71;73.66;99355.41;421788;1296;98902;-41
2022/10/28 15:26:40;;;;;;;11.70;7.40;;;;;;;16.38;74.04;99344.99;421975;1296;112510;-41
2022/10/28 15:36:48;;;;;;;10.70;7.70;;;;;;;16.02;74.29;99336.68;422042;1290;107599;-41
2022/10/28 15:46:52;;;;;;;;;;;;;;;15.63;74.75;99344.09;422414;1296;99230;-41
2022/10/28 15:56:58;;;;;;;20.00;12.70;;;;;;;15.24;75.18;99346.56;421864;1288;107424;-41
2022/10/28 16:07:05;;;;;;;24.10;14.10;;;;;;;14.97;75.51;99342.83;421987;1296;99259;-40
2022/10/28 16:17:14;;;;;;;19.70;12.10;;;;;;;14.78;75.89;99339.66;421930;1296;112045;-41
2022/10/28 16:27:17;;;;;;;18.40;13.20;;;;;;;14.61;76.42;99343.13;421819;1289;107728;-41
2022/10/28 16:47:25;;;;;;;30.70;17.60;;;;;;;14.19;77.20;99351.70;421977;1298;107235;-42
2022/10/28 16:57:29;;;;;;;22.80;15.10;;;;;;;14.00;77.54;99343.19;421735;1289;99227;-40
2022/10/28 17:07:33;;;;;;;25.20;17.00;;;;;;;13.89;77.91;99345.39;421878;1296;112205;-40
2022/10/28 17:17:36;;;;;;;25.00;15.00;;;;;;;13.76;78.05;99337.14;421995;1299;107250;-40
2022/10/28 17:37:44;;;;;;;23.90;14.80;;;;;;;13.50;78.50;99329.08;421929;1296;107653;-41
2022/10/28 17:47:48;;;;;;;22.20;14.10;;;;;;;13.41;78.68;99328.98;421437;1289;99326;-40
2022/10/28 17:57:51;;;;;;;16.80;11.50;;;;;;;13.30;78.75;99323.41;421886;1295;110900;-40
2022/10/28 18:07:56;;;;;;;22.70;13.60;;;;;;;13.17;78.81;99320.42;421784;1296;106781;-41
2022/10/28 18:18:00;;;;;;;21.30;14.90;;;;;;;13.03;79.10;99311.20;421817;1295;99217;-41
2022/10/28 18:28:04;;;;;;;26.20;15.00;;;;;;;12.90;79.15;99314.83;421832;1298;108874;-41
2022/10/28 18:38:08;;;;;;;25.70;14.20;;;;;;;12.74;79.30;99310.34;421740;1298;99243;-39
2022/10/28 18:48:30;;;;;;;22.80;13.70;;;;;;;12.60;79.68;99311.48;421787;1291;112521;-40
2022/10/28 18:58:33;;;;;;;30.00;16.60;;;;;;;12.57;79.80;99315.36;421914;1297;108439;-40
2022/10/28 19:08:57;;;;;;;27.70;17.60;;;;;;;12.49;79.97;99313.34;422023;1298;98026;-41
2022/10/28 19:19:02;;;;;;;23.30;14.60;;;;;;;12.44;80.01;99310.02;421954;1288;108165;-40
2022/10/28 19:29:24;;;;;;;23.40;15.90;;;;;;;12.33;80.16;99294.36;422006;1296;98834;-39
2022/10/28 19:39:46;;;;;;;26.20;15.40;;;;;;;12.27;80.34;99293.96;421905;1297;112488;-42
2022/10/28 19:49:50;;;;;;;22.30;13.80;;;;;;;12.18;80.46;99305.19;421552;1287;109407;-40
2022/10/28 19:59:54;;;;;;;21.40;14.80;;;;;;;12.08;80.55;99309.75;421957;1296;99186;-41
2022/10/28 20:09:57;;;;;;;22.80;14.50;;;;;;;11.93;80.98;99306.14;421973;1296;107505;-40
2022/10/28 20:20:02;;;;;;;23.40;15.80;;;;;;;11.84;81.23;99303.07;422052;1298;99101;-40
2022/10/28 20:30:24;;;;;;;25.30;15.90;;;;;;;11.77;81.44;99293.29;421866;1280;115139;-41
2022/10/28 20:40:27;;;;;;;24.30;15.20;;;;;;;11.69;81.65;99287.39;421898;1288;107252;-41
2022/10/28 20:50:31;;;;;;;25.80;16.10;;;;;;;11.64;81.96;99292.09;421986;1295;98804;-41
2022/10/28 21:00:53;;;;;;;23.90;15.50;;;;;;;11.60;82.02;99287.28;421678;1296;108034;-42
2022/10/28 21:11:17;;;;;;;28.00;17.50;;;;;;;11.54;82.15;99289.45;422015;1296;99246;-40
2022/10/28 21:21:39;;;;;;;25.80;17.10;;;;;;;11.49;82.31;99289.14;421953;1296;112528;-41
2022/10/28 21:31:42;;;;;;;25.60;17.20;;;;;;;11.43;82.47;99273.92;421997;1294;108599;-41
2022/10/28 21:41:46;;;;;;;26.10;15.50;;;;;;;11.37;82.63;99275.16;422101;1296;98635;-39
2022/10/28 21:51:50;;;;;;;26.90;16.60;;;;;;;11.36;82.83;99280.44;422100;1293;109076;-40
2022/10/28 22:02:12;;;;;;;25.90;17.20;;;;;;;11.32;82.94;99270.29;422037;1294;98516;-40
2022/10/28 22:12:16;;;;;;;28.90;17.60;;;;;;;11.25;83.11;99264.36;422160;1285;112170;-39
2022/10/28 22:22:20;;;;;;;27.20;17.70;;;;;;;11.22;83.27;99264.20;421774;1289;108574;-40
2022/10/28 22:32:23;;;;;;;28.40;17.90;;;;;;;11.20;83.39;99257.81;421975;1295;99829;-40
2022/10/28 22:42:45;;;;;;;37.50;19.30;;;;;;;11.16;83.57;99252.93;421804;1296;108824;-42
2022/10/28 22:53:07;;;;;;;29.20;19.80;;;;;;;11.11;83.76;99241.64;421948;1296;98056;-43
2022/10/28 23:03:34;;;;;;;27.90;19.40;;;;;;;11.07;84.03;99232.56;421707;1294;111627;-40
2022/10/28 23:13:38;;;;;;;27.80;18.70;;;;;;;11.03;84.22;99223.47;421478;1301;106887;-41
2022/10/28 23:34:08;;;;;;;29.90;18.60;;;;;;;10.99;84.53;99223.48;421993;1296;108535;-40
2022/10/28 23:44:30;;;;;;;28.50;19.20;;;;;;;10.95;84.65;99219.04;421987;1296;99905;-40
2022/10/28 23:54:34;;;;;;;31.20;20.00;;;;;;;10.92;84.80;99208.25;422045;1298;110827;-41
